createdAt,value
2023-03-23T00:00:09.826Z,14223.4619
2023-03-23T00:01:11.490Z,14222.1543
2023-03-23T00:02:13.131Z,14231.6924
2023-03-23T00:03:14.823Z,14230.8457
2023-03-23T00:04:16.489Z,14224.7695
2023-03-23T00:05:18.100Z,14227.7695
2023-03-23T00:06:19.746Z,14228.1543
2023-03-23T00:07:21.440Z,14224.8457
2023-03-23T00:08:23.086Z,14231.0000
2023-03-23T00:09:24.758Z,14232.9229
2023-03-23T00:10:26.410Z,14231.7695
2023-03-23T00:11:28.046Z,14229.3848
2023-03-23T00:12:30.897Z,14234.6924
2023-03-23T00:13:31.360Z,14232.3076
2023-03-23T00:14:33.046Z,14236.5381
2023-03-23T00:15:34.638Z,14231.4619
2023-03-23T00:16:36.282Z,14239.1543
2023-03-23T00:17:38.088Z,14237.2305
2023-03-23T00:18:39.591Z,14240.0771
2023-03-23T00:19:41.295Z,14245.2305
2023-03-23T00:20:42.907Z,14242.4619
2023-03-23T00:21:44.594Z,14247.6924
2023-03-23T00:22:46.206Z,14247.4619
2023-03-23T00:23:47.899Z,14248.6924
2023-03-23T00:24:49.583Z,14250.5381
2023-03-23T00:25:51.206Z,14247.6152
2023-03-23T00:26:52.870Z,14247.0000
2023-03-23T00:27:54.478Z,14248.6152
2023-03-23T00:28:56.138Z,14241.9229
2023-03-23T00:29:57.847Z,14248.0771
2023-03-23T00:30:59.468Z,14244.9229
2023-03-23T00:32:01.125Z,14256.1543
2023-03-23T00:33:02.792Z,14246.1543
2023-03-23T00:34:04.440Z,14246.7695
2023-03-23T00:35:06.112Z,14248.8457
2023-03-23T00:36:07.793Z,14248.6152
2023-03-23T00:37:09.390Z,14250.7695
2023-03-23T00:38:11.048Z,14255.8457
2023-03-23T00:39:12.690Z,14256.3848
2023-03-23T00:40:14.340Z,14249.2305
2023-03-23T00:41:16.003Z,14257.3848
2023-03-23T00:42:17.637Z,14258.4619
2023-03-23T00:43:19.291Z,14257.5381
2023-03-23T00:44:21.902Z,14258.0000
2023-03-23T00:45:22.648Z,14258.6152
2023-03-23T00:46:24.286Z,14252.9229
2023-03-23T00:47:26.005Z,14257.1543
2023-03-23T00:48:27.567Z,14263.3848
2023-03-23T00:49:29.228Z,14250.6924
2023-03-23T00:50:38.693Z,14262.6924
2023-03-23T00:51:32.530Z,14261.3848
2023-03-23T00:52:34.188Z,14254.0000
2023-03-23T00:53:35.838Z,14272.3848
2023-03-23T00:54:37.492Z,14273.0000
2023-03-23T00:55:39.273Z,14260.6924
2023-03-23T00:56:40.824Z,14260.6924
2023-03-23T00:57:42.492Z,14256.7695
2023-03-23T00:58:44.127Z,14266.3848
2023-03-23T00:59:45.760Z,14264.6924
2023-03-23T01:00:47.466Z,14269.6152
2023-03-23T01:01:49.088Z,14263.7695
2023-03-23T01:02:50.752Z,14272.0771
2023-03-23T01:03:52.399Z,14266.6924
2023-03-23T01:04:54.081Z,14266.3848
2023-03-23T01:05:55.734Z,14264.8457
2023-03-23T01:06:57.373Z,14267.2305
2023-03-23T01:07:59.032Z,14268.1543
2023-03-23T01:09:00.672Z,14267.6924
2023-03-23T01:10:02.334Z,14262.8457
2023-03-23T01:11:04.010Z,14258.0771
2023-03-23T01:12:05.643Z,14262.0000
2023-03-23T01:13:07.369Z,14256.2305
2023-03-23T01:14:09.019Z,14259.3848
2023-03-23T01:15:10.649Z,14262.7695
2023-03-23T01:16:12.308Z,14262.4619
2023-03-23T01:17:13.963Z,14264.3848
2023-03-23T01:18:15.604Z,14265.8457
2023-03-23T01:19:17.252Z,14265.6924
2023-03-23T01:20:18.933Z,14263.6152
2023-03-23T01:21:20.661Z,14259.8457
2023-03-23T01:22:22.236Z,14262.9229
2023-03-23T01:23:23.901Z,14261.4619
2023-03-23T01:24:25.552Z,14261.2305
2023-03-23T01:25:27.209Z,14264.8457
2023-03-23T01:26:28.877Z,14258.0000
2023-03-23T01:27:30.582Z,14254.5381
2023-03-23T01:28:32.174Z,14260.7695
2023-03-23T01:29:33.794Z,14262.6924
2023-03-23T01:30:35.440Z,14261.3076
2023-03-23T01:31:37.157Z,14258.0000
2023-03-23T01:32:38.801Z,14257.3848
2023-03-23T01:33:40.405Z,14256.0000
2023-03-23T01:34:42.052Z,14257.2305
2023-03-23T01:35:43.866Z,14244.8457
2023-03-23T01:36:45.360Z,14251.0000
2023-03-23T01:37:47.000Z,14258.9229
2023-03-23T01:38:48.676Z,14255.5381
2023-03-23T01:39:50.312Z,14249.2305
2023-03-23T01:40:51.964Z,14262.4619
2023-03-23T01:41:53.650Z,14258.9229
2023-03-23T01:42:55.266Z,14257.3848
2023-03-23T01:43:56.926Z,14252.8457
2023-03-23T01:44:58.594Z,14259.0771
2023-03-23T01:46:00.247Z,14256.9229
2023-03-23T01:47:01.906Z,14260.4619
2023-03-23T01:48:03.580Z,14259.3848
2023-03-23T01:49:05.231Z,14252.2305
2023-03-23T01:50:06.873Z,14251.0771
2023-03-23T01:51:08.524Z,14243.6924
2023-03-23T01:52:10.206Z,14245.7695
2023-03-23T01:53:11.849Z,14252.5381
2023-03-23T01:54:13.492Z,14249.7695
2023-03-23T01:55:15.142Z,14256.5381
2023-03-23T01:56:16.813Z,14249.5381
2023-03-23T01:57:18.474Z,14253.9229
2023-03-23T01:58:20.122Z,14247.6152
2023-03-23T01:59:21.761Z,14248.4619
2023-03-23T02:00:23.436Z,14252.1543
2023-03-23T02:01:25.066Z,14245.1543
2023-03-23T02:02:26.738Z,14245.9229
2023-03-23T02:03:28.350Z,14244.2305
2023-03-23T02:04:30.021Z,14241.4619
2023-03-23T02:05:31.660Z,14241.4619
2023-03-23T02:06:33.363Z,14239.2305
2023-03-23T02:07:35.027Z,14235.6924
2023-03-23T02:08:36.628Z,14241.6924
2023-03-23T02:09:38.280Z,14243.3076
2023-03-23T02:10:39.952Z,14240.0771
2023-03-23T02:11:41.582Z,14233.4619
2023-03-23T02:12:43.266Z,14238.8457
2023-03-23T02:13:44.891Z,14240.0771
2023-03-23T02:14:46.551Z,14242.9229
2023-03-23T02:15:48.203Z,14247.4619
2023-03-23T02:16:49.881Z,14240.0000
2023-03-23T02:17:51.537Z,14236.8457
2023-03-23T02:18:53.210Z,14238.3076
2023-03-23T02:19:54.854Z,14247.0000
2023-03-23T02:20:56.510Z,14240.8457
2023-03-23T02:21:58.170Z,14245.4619
2023-03-23T02:22:59.921Z,14244.3076
2023-03-23T02:24:01.475Z,14243.6924
2023-03-23T02:25:03.109Z,14230.6924
2023-03-23T02:26:04.776Z,14246.0771
2023-03-23T02:27:06.481Z,14237.1543
2023-03-23T02:28:08.102Z,14242.0771
2023-03-23T02:29:09.735Z,14243.1543
2023-03-23T02:30:11.435Z,14238.4619
2023-03-23T02:31:13.055Z,14242.0771
2023-03-23T02:32:14.711Z,14245.5381
2023-03-23T02:33:16.423Z,14239.0771
2023-03-23T02:34:18.048Z,14235.9229
2023-03-23T02:35:19.743Z,14241.6152
2023-03-23T02:36:21.360Z,14240.3848
2023-03-23T02:37:23.025Z,14238.5381
2023-03-23T02:38:24.691Z,14233.7695
2023-03-23T02:39:26.330Z,14237.0771
2023-03-23T02:40:27.986Z,14236.7695
2023-03-23T02:41:29.635Z,14230.0771
2023-03-23T02:42:31.505Z,14233.7695
2023-03-23T02:43:35.235Z,14229.4619
2023-03-23T02:44:34.616Z,14234.0771
2023-03-23T02:45:36.248Z,14231.8457
2023-03-23T02:46:37.909Z,14230.4619
2023-03-23T02:47:39.547Z,14231.1543
2023-03-23T02:48:41.240Z,14234.2305
2023-03-23T02:49:42.870Z,14232.2305
2023-03-23T02:50:44.536Z,14230.0771
2023-03-23T02:51:46.158Z,14228.3848
2023-03-23T02:52:47.802Z,14223.6924
2023-03-23T02:53:49.474Z,14224.2305
2023-03-23T02:54:51.113Z,14230.7695
2023-03-23T02:55:52.768Z,14230.6152
2023-03-23T02:56:54.422Z,14231.7695
2023-03-23T02:57:56.104Z,14233.9229
2023-03-23T02:58:57.746Z,14231.4619
2023-03-23T02:59:59.405Z,14232.8457
2023-03-23T03:01:01.060Z,14230.8457
2023-03-23T03:02:02.694Z,14222.2305
2023-03-23T03:03:04.352Z,14232.0771
2023-03-23T03:04:06.029Z,14232.8457
2023-03-23T03:05:07.655Z,14223.9229
2023-03-23T03:06:09.346Z,14227.9229
2023-03-23T03:07:10.977Z,14230.6924
2023-03-23T03:08:12.658Z,14231.0000
2023-03-23T03:09:14.316Z,14228.8457
2023-03-23T03:10:17.417Z,14229.3848
2023-03-23T03:11:17.621Z,14225.5381
2023-03-23T03:12:19.281Z,14226.9229
2023-03-23T03:13:20.929Z,14231.1543
2023-03-23T03:14:22.620Z,14227.3848
2023-03-23T03:15:24.242Z,14223.1543
2023-03-23T03:16:25.903Z,14223.0771
2023-03-23T03:17:27.551Z,14226.3848
2023-03-23T03:18:29.185Z,14220.0000
2023-03-23T03:19:30.878Z,14219.3848
2023-03-23T03:20:32.537Z,14220.7695
2023-03-23T03:21:34.170Z,14215.7695
2023-03-23T03:22:35.819Z,14220.3848
2023-03-23T03:23:37.478Z,14219.0771
2023-03-23T03:24:39.163Z,14220.6152
2023-03-23T03:25:40.942Z,14217.7695
2023-03-23T03:26:42.426Z,14220.9229
2023-03-23T03:27:44.054Z,14213.9229
2023-03-23T03:28:45.712Z,14213.7695
2023-03-23T03:29:47.409Z,14209.6924
2023-03-23T03:30:49.033Z,14215.3076
2023-03-23T03:31:50.672Z,14214.2305
2023-03-23T03:32:52.380Z,14217.5381
2023-03-23T03:33:54.006Z,14215.4619
2023-03-23T03:34:55.666Z,14220.0771
2023-03-23T03:35:57.331Z,14213.6152
2023-03-23T03:36:58.950Z,14211.0771
2023-03-23T03:38:00.612Z,14211.8457
2023-03-23T03:39:02.280Z,14205.2305
2023-03-23T03:40:03.937Z,14206.5381
2023-03-23T03:41:05.547Z,14214.7695
2023-03-23T03:42:07.214Z,14213.1543
2023-03-23T03:43:08.846Z,14215.3848
2023-03-23T03:44:10.498Z,14212.6924
2023-03-23T03:45:12.184Z,14212.0000
2023-03-23T03:46:13.826Z,14212.6152
2023-03-23T03:47:15.502Z,14217.0771
2023-03-23T03:48:17.168Z,14215.9229
2023-03-23T03:49:18.771Z,14214.0000
2023-03-23T03:50:20.456Z,14215.0000
2023-03-23T03:51:22.096Z,14217.7695
2023-03-23T03:52:23.732Z,14208.6924
2023-03-23T03:53:28.737Z,14205.3848
2023-03-23T03:54:27.043Z,14203.7695
2023-03-23T03:55:28.719Z,14213.4619
2023-03-23T03:56:30.350Z,14215.7695
2023-03-23T03:57:32.046Z,14208.6152
2023-03-23T03:58:33.716Z,14208.5381
2023-03-23T03:59:35.347Z,14213.1543
2023-03-23T04:00:37.022Z,14202.3848
2023-03-23T04:01:38.616Z,14208.0000
2023-03-23T04:02:40.314Z,14207.1543
2023-03-23T04:03:41.972Z,14205.2305
2023-03-23T04:04:43.624Z,14207.3076
2023-03-23T04:05:45.282Z,14200.4619
2023-03-23T04:06:46.944Z,14202.9229
2023-03-23T04:07:48.600Z,14206.7695
2023-03-23T04:08:50.234Z,14207.1543
2023-03-23T04:09:51.905Z,14202.5381
2023-03-23T04:10:53.580Z,14204.0771
2023-03-23T04:11:55.200Z,14202.4619
2023-03-23T04:12:56.881Z,14200.9229
2023-03-23T04:13:58.494Z,14196.3076
2023-03-23T04:15:00.173Z,14203.6152
2023-03-23T04:16:07.359Z,14202.8457
2023-03-23T04:17:03.462Z,14200.9229
2023-03-23T04:18:05.109Z,14199.5381
2023-03-23T04:19:06.791Z,14196.0000
2023-03-23T04:20:08.421Z,14202.6152
2023-03-23T04:21:10.110Z,14198.4619
2023-03-23T04:22:11.734Z,14207.3848
2023-03-23T04:23:13.392Z,14209.3076
2023-03-23T04:24:23.395Z,14204.3076
2023-03-23T04:25:16.694Z,14212.4619
2023-03-23T04:26:18.409Z,14205.3076
2023-03-23T04:27:20.005Z,14200.4619
2023-03-23T04:28:21.671Z,14201.8457
2023-03-23T04:29:23.316Z,14206.6152
2023-03-23T04:30:25.001Z,14204.1543
2023-03-23T04:31:26.669Z,14208.6152
2023-03-23T04:32:28.296Z,14207.6924
2023-03-23T04:33:59.600Z,14208.6152
2023-03-23T04:34:31.630Z,14204.4619
2023-03-23T04:35:33.292Z,14201.3848
2023-03-23T04:36:56.582Z,14208.7695
2023-03-23T04:37:36.587Z,14207.0771
2023-03-23T04:38:38.204Z,14203.6924
2023-03-23T04:39:39.895Z,14200.7695
2023-03-23T04:40:41.548Z,14197.7695
2023-03-23T04:41:43.219Z,14201.9229
2023-03-23T04:42:44.841Z,14204.6152
2023-03-23T04:43:46.479Z,14204.1543
2023-03-23T04:44:48.137Z,14201.5381
2023-03-23T04:45:49.807Z,14202.0771
2023-03-23T04:46:51.493Z,14202.6152
2023-03-23T04:47:53.142Z,14205.3076
2023-03-23T04:48:54.800Z,14203.6152
2023-03-23T04:49:56.448Z,14204.1543
2023-03-23T04:50:58.099Z,14202.8457
2023-03-23T04:51:59.765Z,14199.4619
2023-03-23T04:53:01.410Z,14204.9229
2023-03-23T04:54:03.057Z,14201.1543
2023-03-23T04:55:04.727Z,14202.6924
2023-03-23T04:56:06.361Z,14205.7695
2023-03-23T04:57:08.034Z,14203.1543
2023-03-23T04:58:09.674Z,14211.9229
2023-03-23T04:59:11.329Z,14207.2305
2023-03-23T05:00:12.990Z,14216.0000
2023-03-23T05:01:14.639Z,14211.6152
2023-03-23T05:02:16.314Z,14212.0771
2023-03-23T05:03:17.916Z,14212.8457
2023-03-23T05:04:19.573Z,14203.7695
2023-03-23T05:05:21.223Z,14207.3848
2023-03-23T05:06:22.882Z,14210.3848
2023-03-23T05:07:24.577Z,14217.6924
2023-03-23T05:08:26.189Z,14217.8457
2023-03-23T05:09:27.855Z,14218.6924
2023-03-23T05:10:29.495Z,14216.3076
2023-03-23T05:11:31.155Z,14212.3076
2023-03-23T05:12:32.825Z,14217.0771
2023-03-23T05:13:34.483Z,14213.6924
2023-03-23T05:14:37.779Z,14211.6924
2023-03-23T05:15:37.866Z,14221.6924
2023-03-23T05:16:39.493Z,14215.7695
2023-03-23T05:17:41.176Z,14215.7695
2023-03-23T05:18:42.832Z,14217.5381
2023-03-23T05:19:44.495Z,14214.3076
2023-03-23T05:20:46.167Z,14220.7695
2023-03-23T05:21:47.785Z,14215.6152
2023-03-23T05:22:49.467Z,14212.2305
2023-03-23T05:23:51.097Z,14195.3848
2023-03-23T05:24:52.742Z,14185.0000
2023-03-23T05:25:54.404Z,14179.3848
2023-03-23T05:26:56.059Z,14163.6924
2023-03-23T05:27:57.780Z,14152.6924
2023-03-23T05:28:59.385Z,14135.7695
2023-03-23T05:30:01.024Z,14138.4619
2023-03-23T05:31:02.690Z,14133.6152
2023-03-23T05:32:04.344Z,14127.0771
2023-03-23T05:33:05.982Z,14118.7695
2023-03-23T05:34:07.625Z,14116.0000
2023-03-23T05:35:09.308Z,14109.0771
2023-03-23T05:36:10.974Z,14108.6152
2023-03-23T05:37:12.589Z,14105.4619
2023-03-23T05:38:14.284Z,14111.4619
2023-03-23T05:39:15.918Z,14102.3848
2023-03-23T05:40:17.576Z,14109.4619
2023-03-23T05:41:19.220Z,14159.3076
2023-03-23T05:42:20.860Z,14176.0771
2023-03-23T05:43:22.560Z,14126.6924
2023-03-23T05:44:24.220Z,14226.6924
2023-03-23T05:45:25.856Z,14189.3848
2023-03-23T05:46:27.515Z,14177.0771
2023-03-23T05:47:29.144Z,14170.3076
2023-03-23T05:48:30.809Z,14169.8457
2023-03-23T05:49:32.480Z,14121.5381
2023-03-23T05:50:34.126Z,14135.0000
2023-03-23T05:51:35.760Z,14133.4619
2023-03-23T05:52:37.420Z,14133.1543
2023-03-23T05:53:39.089Z,14123.4619
2023-03-23T05:54:40.708Z,14125.8457
2023-03-23T05:55:42.558Z,14124.3848
2023-03-23T05:56:44.026Z,14081.3076
2023-03-23T05:57:45.652Z,14030.2305
2023-03-23T05:58:47.342Z,13964.9229
2023-03-23T05:59:48.975Z,14104.0771
2023-03-23T06:00:50.627Z,14062.8457
2023-03-23T06:01:52.314Z,14137.3076
2023-03-23T06:02:53.932Z,14098.7695
2023-03-23T06:03:55.593Z,14049.9229
2023-03-23T06:04:57.235Z,14142.6152
2023-03-23T06:05:58.913Z,14156.0000
2023-03-23T06:07:00.587Z,14153.6924
2023-03-23T06:08:02.211Z,14149.5381
2023-03-23T06:09:04.486Z,14118.3076
2023-03-23T06:10:05.535Z,14063.3848
2023-03-23T06:11:07.173Z,13905.6152
2023-03-23T06:12:08.823Z,13920.4619
2023-03-23T06:13:10.489Z,13956.1543
2023-03-23T06:14:12.365Z,13970.3076
2023-03-23T06:15:13.794Z,13987.7695
2023-03-23T06:16:15.471Z,13996.4619
2023-03-23T06:17:17.097Z,13995.4619
2023-03-23T06:18:18.745Z,14012.7695
2023-03-23T06:19:20.405Z,14066.6152
2023-03-23T06:20:22.098Z,14025.3076
2023-03-23T06:21:23.707Z,14035.9229
2023-03-23T06:22:25.378Z,14065.3076
2023-03-23T06:23:27.023Z,14064.4619
2023-03-23T06:24:28.660Z,14055.1543
2023-03-23T06:25:30.287Z,14076.3076
2023-03-23T06:26:31.936Z,14102.5381
2023-03-23T06:27:33.596Z,14109.3076
2023-03-23T06:28:35.250Z,14112.1543
2023-03-23T06:29:36.941Z,14108.0000
2023-03-23T06:30:38.552Z,14112.0771
2023-03-23T06:31:40.202Z,14111.7695
2023-03-23T06:32:41.878Z,14095.8457
2023-03-23T06:33:43.536Z,14090.5381
2023-03-23T06:34:45.170Z,14111.1543
2023-03-23T06:35:46.851Z,14111.0771
2023-03-23T06:36:48.466Z,14118.5381
2023-03-23T06:37:50.110Z,14111.5381
2023-03-23T06:38:51.792Z,14115.2305
2023-03-23T06:39:53.426Z,14119.5381
2023-03-23T06:40:55.085Z,14114.6152
2023-03-23T06:41:56.756Z,14122.1543
2023-03-23T06:42:58.387Z,14121.0000
2023-03-23T06:44:00.059Z,14125.5381
2023-03-23T06:45:01.717Z,14125.8457
2023-03-23T06:46:03.354Z,14127.6924
2023-03-23T06:47:05.020Z,14131.0000
2023-03-23T06:48:06.652Z,14128.3076
2023-03-23T06:49:08.262Z,14133.9229
2023-03-23T06:50:09.941Z,14136.3848
2023-03-23T06:51:11.581Z,14138.3848
2023-03-23T06:52:13.224Z,14141.0771
2023-03-23T06:53:14.879Z,14137.8457
2023-03-23T06:54:16.530Z,14143.6924
2023-03-23T06:55:18.205Z,14140.0771
2023-03-23T06:56:19.830Z,14149.3848
2023-03-23T06:57:21.491Z,14152.9229
2023-03-23T06:58:23.134Z,14152.3848
2023-03-23T06:59:24.817Z,14151.0000
2023-03-23T07:00:26.498Z,14156.7695
2023-03-23T07:01:28.119Z,14157.6924
2023-03-23T07:02:29.779Z,14158.8457
2023-03-23T07:03:31.430Z,14161.0771
2023-03-23T07:04:33.076Z,14163.7695
2023-03-23T07:05:34.745Z,14163.6924
2023-03-23T07:06:36.389Z,14164.3848
2023-03-23T07:07:38.044Z,14163.7695
2023-03-23T07:08:39.683Z,14165.9229
2023-03-23T07:09:43.320Z,14170.6152
2023-03-23T07:10:43.016Z,14171.7695
2023-03-23T07:11:44.645Z,14181.4619
2023-03-23T07:12:46.306Z,14179.3076
2023-03-23T07:13:47.923Z,14160.0771
2023-03-23T07:14:49.581Z,14160.3076
2023-03-23T07:15:51.305Z,14160.6152
2023-03-23T07:16:52.937Z,14172.3076
2023-03-23T07:17:54.544Z,14181.3848
2023-03-23T07:18:56.207Z,14187.7695
2023-03-23T07:19:57.882Z,14210.4619
2023-03-23T07:20:59.558Z,14215.3076
2023-03-23T07:22:01.156Z,14225.3076
2023-03-23T07:23:03.020Z,14214.3848
2023-03-23T07:24:04.460Z,14207.2305
2023-03-23T07:25:06.100Z,14217.4619
2023-03-23T07:26:07.784Z,14225.5381
2023-03-23T07:27:09.399Z,14220.7695
2023-03-23T07:28:11.066Z,14219.9229
2023-03-23T07:29:12.724Z,14210.7695
2023-03-23T07:30:14.413Z,14217.2305
2023-03-23T07:31:16.145Z,14209.6152
2023-03-23T07:32:17.692Z,14211.0000
2023-03-23T07:33:19.368Z,14212.1543
2023-03-23T07:34:21.022Z,14190.9229
2023-03-23T07:35:22.666Z,14186.7695
2023-03-23T07:36:24.324Z,14192.8457
2023-03-23T07:37:25.938Z,14189.5381
2023-03-23T07:38:27.621Z,14185.8457
2023-03-23T07:39:29.271Z,14190.6924
2023-03-23T07:40:30.977Z,14193.6924
2023-03-23T07:41:32.601Z,14190.4619
2023-03-23T07:42:34.229Z,14196.0771
2023-03-23T07:43:35.882Z,14198.7695
2023-03-23T07:44:37.526Z,14194.0000
2023-03-23T07:45:39.296Z,14195.2305
2023-03-23T07:46:41.041Z,14188.5381
2023-03-23T07:47:42.441Z,14193.9229
2023-03-23T07:48:44.083Z,14195.1543
2023-03-23T07:49:45.748Z,14194.3076
2023-03-23T07:50:47.436Z,14191.8457
2023-03-23T07:51:49.091Z,14195.9229
2023-03-23T07:52:50.711Z,14198.9229
2023-03-23T07:53:52.366Z,14194.3848
2023-03-23T07:54:54.018Z,14194.3848
2023-03-23T07:55:55.668Z,14192.0771
2023-03-23T07:56:57.329Z,14201.5381
2023-03-23T07:57:58.960Z,14197.8457
2023-03-23T07:59:00.615Z,14192.8457
2023-03-23T08:00:02.293Z,14196.3076
2023-03-23T08:01:03.944Z,14197.8457
2023-03-23T08:02:05.599Z,14192.2305
2023-03-23T08:03:07.249Z,14197.0000
2023-03-23T08:04:08.912Z,14197.6152
2023-03-23T08:05:10.558Z,14192.9229
2023-03-23T08:06:12.201Z,14195.0771
2023-03-23T08:07:13.891Z,14189.8457
2023-03-23T08:08:15.505Z,14196.7695
2023-03-23T08:09:17.138Z,14187.8457
2023-03-23T08:10:18.786Z,14196.2305
2023-03-23T08:11:20.476Z,14194.8457
2023-03-23T08:12:22.177Z,14196.0000
2023-03-23T08:13:23.805Z,14186.0000
2023-03-23T08:14:25.421Z,14188.6924
2023-03-23T08:15:27.100Z,14197.0771
2023-03-23T08:16:28.757Z,14194.0771
2023-03-23T08:17:30.406Z,14194.6924
2023-03-23T08:18:32.037Z,14192.6152
2023-03-23T08:19:33.668Z,14191.4619
2023-03-23T08:20:35.309Z,14194.0771
2023-03-23T08:21:36.975Z,14195.9229
2023-03-23T08:22:44.790Z,14194.0771
2023-03-23T08:23:40.319Z,14194.8457
2023-03-23T08:24:41.972Z,14196.3076
2023-03-23T08:25:43.847Z,14198.3848
2023-03-23T08:26:45.231Z,14201.0000
2023-03-23T08:27:46.926Z,14197.3076
2023-03-23T08:28:48.547Z,14188.5381
2023-03-23T08:29:50.209Z,14194.5381
2023-03-23T08:30:51.867Z,14192.3076
2023-03-23T08:31:53.503Z,14192.3848
2023-03-23T08:32:55.212Z,14182.9229
2023-03-23T08:33:56.812Z,14184.0771
2023-03-23T08:34:58.467Z,14188.7695
2023-03-23T08:36:00.168Z,14197.2305
2023-03-23T08:37:01.759Z,14197.4619
2023-03-23T08:38:03.471Z,14198.5381
2023-03-23T08:39:05.115Z,14182.5381
2023-03-23T08:40:06.812Z,14192.1543
2023-03-23T08:41:08.411Z,14193.3848
2023-03-23T08:42:10.077Z,14191.5381
2023-03-23T08:43:11.742Z,14197.9229
2023-03-23T08:44:13.390Z,14189.7695
2023-03-23T08:45:15.039Z,14195.4619
2023-03-23T08:46:16.697Z,14228.4619
2023-03-23T08:47:18.340Z,14224.0771
2023-03-23T08:48:20.016Z,14207.9229
2023-03-23T08:49:21.640Z,14195.8457
2023-03-23T08:50:23.312Z,14202.3076
2023-03-23T08:51:24.944Z,14198.0000
2023-03-23T08:52:26.573Z,14200.6924
2023-03-23T08:53:28.252Z,14194.6924
2023-03-23T08:54:29.911Z,14194.4619
2023-03-23T08:55:31.555Z,14204.6924
2023-03-23T08:56:33.200Z,14200.3076
2023-03-23T08:57:34.828Z,14200.3848
2023-03-23T08:58:36.498Z,14198.8457
2023-03-23T08:59:38.702Z,14195.2305
2023-03-23T09:01:41.477Z,14203.9229
2023-03-23T09:02:43.086Z,14196.3848
2023-03-23T09:03:44.776Z,14203.4619
2023-03-23T09:04:46.404Z,14206.3076
2023-03-23T09:05:48.071Z,14209.5381
2023-03-23T09:06:49.723Z,14205.7695
2023-03-23T09:07:51.380Z,14208.8457
2023-03-23T09:08:53.006Z,14205.6924
2023-03-23T09:09:54.641Z,14204.6924
2023-03-23T09:10:56.326Z,14198.9229
2023-03-23T09:11:58.713Z,14202.3076
2023-03-23T09:12:59.615Z,14201.9229
2023-03-23T09:14:01.272Z,14204.0771
2023-03-23T09:15:02.905Z,14202.3848
2023-03-23T09:16:04.575Z,14194.0000
2023-03-23T09:17:06.243Z,14197.6152
2023-03-23T09:18:07.891Z,14198.2305
2023-03-23T09:19:09.611Z,14203.3076
2023-03-23T09:20:11.228Z,14202.6152
2023-03-23T09:21:18.926Z,14206.5381
2023-03-23T09:22:14.546Z,14203.6152
2023-03-23T09:23:16.187Z,14201.4619
2023-03-23T09:24:17.854Z,14200.4619
2023-03-23T09:25:19.538Z,14203.3076
2023-03-23T09:26:21.168Z,14196.2305
2023-03-23T09:27:22.814Z,14199.6924
2023-03-23T09:28:24.456Z,14202.3076
2023-03-23T09:29:26.145Z,14200.2305
2023-03-23T09:30:27.767Z,14200.2305
2023-03-23T09:31:29.407Z,14203.6152
2023-03-23T09:32:31.054Z,14207.6924
2023-03-23T09:33:32.706Z,14202.6924
2023-03-23T09:34:34.420Z,14204.2305
2023-03-23T09:35:36.007Z,14202.3076
2023-03-23T09:36:37.646Z,14202.4619
2023-03-23T09:37:39.271Z,14209.0771
2023-03-23T09:38:40.919Z,14202.3076
2023-03-23T09:39:42.622Z,14209.0000
2023-03-23T09:40:44.261Z,14203.6924
2023-03-23T09:41:46.701Z,14208.0000
2023-03-23T09:42:47.795Z,14205.1543
2023-03-23T09:43:49.181Z,14205.9229
2023-03-23T09:44:50.851Z,14202.6924
2023-03-23T09:45:52.493Z,14211.9229
2023-03-23T09:46:54.146Z,14205.2305
2023-03-23T09:47:55.805Z,14201.4619
2023-03-23T09:48:57.457Z,14202.2305
2023-03-23T09:49:59.104Z,14204.3076
2023-03-23T09:51:00.735Z,14199.0771
2023-03-23T09:52:02.393Z,14197.6924
2023-03-23T09:53:04.043Z,14198.0000
2023-03-23T09:54:05.699Z,14197.7695
2023-03-23T09:55:07.363Z,14195.2305
2023-03-23T09:56:09.038Z,14201.0771
2023-03-23T09:57:10.680Z,14195.6924
2023-03-23T09:58:12.314Z,14199.2305
2023-03-23T09:59:13.968Z,14199.0771
2023-03-23T10:00:15.710Z,14198.3076
2023-03-23T10:01:17.286Z,14197.3076
2023-03-23T10:02:18.912Z,14194.4619
2023-03-23T10:03:20.565Z,14195.3076
2023-03-23T10:04:22.219Z,14196.8457
2023-03-23T10:05:23.868Z,14187.6924
2023-03-23T10:06:25.497Z,14196.6152
2023-03-23T10:07:27.182Z,14186.9229
2023-03-23T10:08:28.791Z,14191.0000
2023-03-23T10:09:30.427Z,14187.1543
2023-03-23T10:10:32.169Z,14194.5381
2023-03-23T10:11:33.756Z,14206.0771
2023-03-23T10:12:35.398Z,14209.0000
2023-03-23T10:13:37.036Z,14214.4619
2023-03-23T10:14:38.769Z,14198.0000
2023-03-23T10:15:40.580Z,14183.8457
2023-03-23T10:16:42.013Z,14171.0771
2023-03-23T10:17:43.705Z,14183.4619
2023-03-23T10:18:45.319Z,14175.0771
2023-03-23T10:19:47.754Z,14184.6924
2023-03-23T10:20:48.640Z,14190.2305
2023-03-23T10:21:50.266Z,14199.3848
2023-03-23T10:22:51.921Z,14166.1543
2023-03-23T10:23:53.568Z,14164.5381
2023-03-23T10:24:55.219Z,14159.6924
2023-03-23T10:25:56.889Z,14160.8457
2023-03-23T10:26:58.549Z,14158.7695
2023-03-23T10:28:00.214Z,14158.6924
2023-03-23T10:29:01.824Z,14159.8457
2023-03-23T10:30:03.449Z,14164.6924
2023-03-23T10:31:05.140Z,14172.3076
2023-03-23T10:32:06.748Z,14173.1543
2023-03-23T10:33:08.432Z,14167.8457
2023-03-23T10:34:10.066Z,14169.0000
2023-03-23T10:35:11.741Z,14166.6152
2023-03-23T10:36:13.431Z,14164.6152
2023-03-23T10:37:15.027Z,14168.0771
2023-03-23T10:38:16.688Z,14167.9229
2023-03-23T10:39:18.340Z,14165.5381
2023-03-23T10:40:22.074Z,14171.6924
2023-03-23T10:41:21.710Z,14168.4619
2023-03-23T10:42:23.310Z,14171.7695
2023-03-23T10:43:24.937Z,14172.2305
2023-03-23T10:44:26.591Z,14170.0000
2023-03-23T10:45:28.246Z,14174.3848
2023-03-23T10:46:31.951Z,14171.3848
2023-03-23T10:47:31.595Z,14170.6924
2023-03-23T10:48:33.237Z,14168.2305
2023-03-23T10:49:34.884Z,14165.7695
2023-03-23T10:50:36.542Z,14166.3848
2023-03-23T10:51:38.232Z,14166.7695
2023-03-23T10:52:39.873Z,14165.2305
2023-03-23T10:53:41.499Z,14162.4619
2023-03-23T10:54:43.160Z,14159.3848
2023-03-23T10:55:44.785Z,14174.6924
2023-03-23T10:56:58.813Z,14139.2305
2023-03-23T10:57:48.770Z,14147.3076
2023-03-23T10:58:49.776Z,14117.0771
2023-03-23T10:59:51.426Z,14051.8457
2023-03-23T11:00:53.067Z,14057.5381
2023-03-23T11:01:54.733Z,14022.4619
2023-03-23T11:02:56.377Z,14075.4619
2023-03-23T11:03:58.016Z,14074.7695
2023-03-23T11:05:03.019Z,13998.4619
2023-03-23T11:06:01.309Z,14047.0000
2023-03-23T11:07:02.973Z,14059.6924
2023-03-23T11:08:04.612Z,14032.5381
2023-03-23T11:09:06.253Z,14065.5381
2023-03-23T11:10:07.911Z,14040.3848
2023-03-23T11:11:09.573Z,14045.2305
2023-03-23T11:12:11.249Z,14108.6152
2023-03-23T11:13:12.885Z,14145.0000
2023-03-23T11:14:14.551Z,14165.3848
2023-03-23T11:15:16.187Z,14176.3076
2023-03-23T11:16:17.843Z,14181.6152
2023-03-23T11:17:19.506Z,14181.0771
2023-03-23T11:18:21.164Z,14139.6152
2023-03-23T11:19:22.825Z,14115.8457
2023-03-23T11:20:24.444Z,14127.0000
2023-03-23T11:21:26.094Z,14127.9229
2023-03-23T11:22:27.749Z,14150.0000
2023-03-23T11:23:29.363Z,14179.5381
2023-03-23T11:24:31.041Z,14167.0771